Overview Statistics Trail Chart Weather Telemetry Raw packets
 

This is the latest recevied weather packets stored in our database for station/object OE6ATD-13. If no packets are shown the sender has not sent any weather packets the latest 10 day(s).

<< 4 5 6 7 8 9 10 >>
Time Temp. Humidity Pressure Rain* Wind** Luminosity Snow
1788618022 21.11° C 79% 1020.1 hPa 0 mm - 484 W/m² -
1788617418 20.56° C 81% 1020.4 hPa 0 mm - 195 W/m² -
1788616829 20° C 82% 1020.2 hPa 0 mm - 120 W/m² -
1788616225 19.44° C 83% 1020.2 hPa 0 mm - 68 W/m² -
1788615621 19.44° C 84% 1020.2 hPa 0.25 mm - 63 W/m² -
1788615017 18.89° C 86% 1020.3 hPa 0.76 mm - 75 W/m² -
1788614427 18.89° C 88% 1020.2 hPa 1.02 mm - 97 W/m² -
1788613824 18.89° C 87% 1020.2 hPa 1.27 mm - 81 W/m² -
1788613219 18.33° C 85% 1020.7 hPa 1.27 mm - 74 W/m² -
1788612615 18.89° C 84% 1020.4 hPa 1.27 mm - 67 W/m² -
1788612026 19.44° C 79% 1020.8 hPa 1.02 mm - 84 W/m² -
1788611422 20.56° C 70% 1021.1 hPa 0.51 mm - 31 W/m² -
1788610825 21.67° C 61% 1021.2 hPa 0.25 mm - 26 W/m² -
1788610216 23.33° C 51% 1020.9 hPa 0 mm - 21 W/m² -
1788609627 23.33° C 50% 1020.7 hPa 0 mm - 48 W/m² -
1788609023 23.89° C 50% 1020.4 hPa 0 mm - 56 W/m² -
1788608418 24.44° C 49% 1020.2 hPa 0 mm - 92 W/m² -
1788607829 24.44° C 48% 1020.2 hPa 0 mm - 186 W/m² -
1788607225 24.44° C 49% 1020.2 hPa 0 mm - 209 W/m² -
1788606621 24.44° C 49% 1020.1 hPa 0 mm - 256 W/m² -
1788606017 24.44° C 50% 1020.1 hPa 0 mm - 250 W/m² -
1788605428 23.89° C 50% 1020 hPa 0 mm - 185 W/m² -
1788604824 23.89° C 49% 1020.2 hPa 0 mm - 125 W/m² -
1788604219 24.44° C 47% 1020 hPa 0 mm - 228 W/m² -
1788603615 25° C 47% 1020.1 hPa 0 mm - 259 W/m² -

* Rain latest hour (hover to see other rain measurements)
** Current wind speed in m/s (hover to see current wind gust speed)